sensor_id;sensor_type;location;lat;lon;timestamp;P1;durP1;ratioP1;P2;durP2;ratioP2
29380;SDS011;16364;52.490;13.326;2023-08-21T00:02:14;7.70;;;6.90;;
29380;SDS011;16364;52.490;13.326;2023-08-21T00:04:39;8.53;;;7.73;;
29380;SDS011;16364;52.490;13.326;2023-08-21T00:07:04;8.63;;;7.83;;
29380;SDS011;16364;52.490;13.326;2023-08-21T00:09:31;8.30;;;7.50;;
29380;SDS011;16364;52.490;13.326;2023-08-21T00:11:56;7.47;;;6.83;;
29380;SDS011;16364;52.490;13.326;2023-08-21T00:14:21;6.87;;;6.23;;
29380;SDS011;16364;52.490;13.326;2023-08-21T00:16:47;10.27;;;6.53;;
29380;SDS011;16364;52.490;13.326;2023-08-21T00:19:12;6.90;;;6.30;;
29380;SDS011;16364;52.490;13.326;2023-08-21T00:21:37;8.00;;;7.30;;
29380;SDS011;16364;52.490;13.326;2023-08-21T00:24:02;5.83;;;5.33;;
29380;SDS011;16364;52.490;13.326;2023-08-21T00:26:28;5.50;;;5.10;;
29380;SDS011;16364;52.490;13.326;2023-08-21T00:28:53;8.37;;;6.40;;
29380;SDS011;16364;52.490;13.326;2023-08-21T00:31:18;6.63;;;6.07;;
29380;SDS011;16364;52.490;13.326;2023-08-21T00:33:43;7.03;;;6.43;;
29380;SDS011;16364;52.490;13.326;2023-08-21T00:36:08;7.30;;;6.70;;
29380;SDS011;16364;52.490;13.326;2023-08-21T00:38:34;7.63;;;6.80;;
29380;SDS011;16364;52.490;13.326;2023-08-21T00:41:00;8.63;;;7.80;;
29380;SDS011;16364;52.490;13.326;2023-08-21T00:43:25;7.73;;;6.93;;
29380;SDS011;16364;52.490;13.326;2023-08-21T00:45:50;7.17;;;6.57;;
29380;SDS011;16364;52.490;13.326;2023-08-21T00:48:15;7.23;;;6.60;;
29380;SDS011;16364;52.490;13.326;2023-08-21T00:50:41;5.97;;;5.50;;
29380;SDS011;16364;52.490;13.326;2023-08-21T00:53:06;9.00;;;6.80;;
29380;SDS011;16364;52.490;13.326;2023-08-21T00:55:32;8.27;;;7.47;;
29380;SDS011;16364;52.490;13.326;2023-08-21T00:57:57;9.17;;;7.67;;
29380;SDS011;16364;52.490;13.326;2023-08-21T01:00:23;7.73;;;7.03;;
29380;SDS011;16364;52.490;13.326;2023-08-21T01:02:49;8.33;;;7.57;;
29380;SDS011;16364;52.490;13.326;2023-08-21T01:05:14;7.27;;;6.60;;
29380;SDS011;16364;52.490;13.326;2023-08-21T01:07:53;9.37;;;8.47;;
29380;SDS011;16364;52.490;13.326;2023-08-21T01:10:37;8.40;;;7.70;;
29380;SDS011;16364;52.490;13.326;2023-08-21T01:13:08;7.30;;;6.70;;
29380;SDS011;16364;52.490;13.326;2023-08-21T01:15:34;8.03;;;6.87;;
29380;SDS011;16364;52.490;13.326;2023-08-21T01:18:00;8.90;;;8.00;;
29380;SDS011;16364;52.490;13.326;2023-08-21T01:20:26;7.87;;;7.27;;
29380;SDS011;16364;52.490;13.326;2023-08-21T01:22:51;8.27;;;7.60;;
29380;SDS011;16364;52.490;13.326;2023-08-21T01:25:16;7.00;;;6.43;;
29380;SDS011;16364;52.490;13.326;2023-08-21T01:27:43;8.20;;;7.20;;
29380;SDS011;16364;52.490;13.326;2023-08-21T01:30:08;8.63;;;7.93;;
29380;SDS011;16364;52.490;13.326;2023-08-21T01:34:59;10.00;;;9.00;;
29380;SDS011;16364;52.490;13.326;2023-08-21T01:37:25;9.80;;;8.37;;
29380;SDS011;16364;52.490;13.326;2023-08-21T01:39:51;8.20;;;7.47;;
29380;SDS011;16364;52.490;13.326;2023-08-21T01:42:16;9.63;;;8.73;;
29380;SDS011;16364;52.490;13.326;2023-08-21T01:44:41;8.93;;;8.03;;
29380;SDS011;16364;52.490;13.326;2023-08-21T01:47:07;8.13;;;7.33;;
29380;SDS011;16364;52.490;13.326;2023-08-21T01:49:32;9.20;;;8.33;;
29380;SDS011;16364;52.490;13.326;2023-08-21T01:51:57;9.53;;;8.60;;
29380;SDS011;16364;52.490;13.326;2023-08-21T01:54:22;9.47;;;8.67;;
29380;SDS011;16364;52.490;13.326;2023-08-21T01:56:48;16.87;;;14.50;;
29380;SDS011;16364;52.490;13.326;2023-08-21T01:59:15;16.00;;;13.10;;
29380;SDS011;16364;52.490;13.326;2023-08-21T02:01:41;11.47;;;10.37;;
29380;SDS011;16364;52.490;13.326;2023-08-21T02:04:06;9.33;;;8.40;;
29380;SDS011;16364;52.490;13.326;2023-08-21T02:06:31;9.00;;;8.10;;
29380;SDS011;16364;52.490;13.326;2023-08-21T02:08:56;9.03;;;8.27;;
29380;SDS011;16364;52.490;13.326;2023-08-21T02:11:22;8.97;;;8.17;;
29380;SDS011;16364;52.490;13.326;2023-08-21T02:13:47;7.83;;;7.13;;
29380;SDS011;16364;52.490;13.326;2023-08-21T02:16:12;7.93;;;7.23;;
29380;SDS011;16364;52.490;13.326;2023-08-21T02:18:37;9.00;;;8.20;;
29380;SDS011;16364;52.490;13.326;2023-08-21T02:21:02;9.30;;;8.50;;
29380;SDS011;16364;52.490;13.326;2023-08-21T02:23:28;8.67;;;7.77;;
29380;SDS011;16364;52.490;13.326;2023-08-21T02:25:54;8.13;;;7.33;;
29380;SDS011;16364;52.490;13.326;2023-08-21T02:28:19;8.53;;;7.73;;
29380;SDS011;16364;52.490;13.326;2023-08-21T02:30:44;8.97;;;8.03;;
29380;SDS011;16364;52.490;13.326;2023-08-21T02:33:10;8.50;;;7.70;;
29380;SDS011;16364;52.490;13.326;2023-08-21T02:35:35;7.93;;;7.23;;
29380;SDS011;16364;52.490;13.326;2023-08-21T02:38:01;7.80;;;7.00;;
29380;SDS011;16364;52.490;13.326;2023-08-21T02:40:26;7.93;;;7.23;;
29380;SDS011;16364;52.490;13.326;2023-08-21T02:42:51;7.87;;;7.17;;
29380;SDS011;16364;52.490;13.326;2023-08-21T02:45:16;7.90;;;7.20;;
29380;SDS011;16364;52.490;13.326;2023-08-21T02:47:44;8.30;;;7.60;;
29380;SDS011;16364;52.490;13.326;2023-08-21T02:50:09;8.30;;;7.60;;
29380;SDS011;16364;52.490;13.326;2023-08-21T02:52:35;9.20;;;8.47;;
29380;SDS011;16364;52.490;13.326;2023-08-21T02:55:00;9.40;;;8.50;;
29380;SDS011;16364;52.490;13.326;2023-08-21T02:57:26;8.40;;;7.63;;
29380;SDS011;16364;52.490;13.326;2023-08-21T02:59:51;7.77;;;7.07;;
29380;SDS011;16364;52.490;13.326;2023-08-21T03:02:17;8.13;;;7.33;;
29380;SDS011;16364;52.490;13.326;2023-08-21T03:04:42;8.70;;;8.10;;
29380;SDS011;16364;52.490;13.326;2023-08-21T03:07:07;9.30;;;7.60;;
29380;SDS011;16364;52.490;13.326;2023-08-21T03:09:33;9.17;;;8.37;;
29380;SDS011;16364;52.490;13.326;2023-08-21T03:11:58;9.17;;;8.43;;
29380;SDS011;16364;52.490;13.326;2023-08-21T03:14:24;7.80;;;7.20;;
29380;SDS011;16364;52.490;13.326;2023-08-21T03:16:49;7.50;;;6.90;;
29380;SDS011;16364;52.490;13.326;2023-08-21T03:19:15;7.70;;;6.90;;
29380;SDS011;16364;52.490;13.326;2023-08-21T03:21:40;7.67;;;7.00;;
29380;SDS011;16364;52.490;13.326;2023-08-21T03:24:05;7.90;;;7.20;;
29380;SDS011;16364;52.490;13.326;2023-08-21T03:26:31;7.63;;;7.03;;
29380;SDS011;16364;52.490;13.326;2023-08-21T03:28:56;7.13;;;6.63;;
29380;SDS011;16364;52.490;13.326;2023-08-21T03:31:21;8.53;;;7.73;;
29380;SDS011;16364;52.490;13.326;2023-08-21T03:33:47;7.03;;;6.43;;
29380;SDS011;16364;52.490;13.326;2023-08-21T03:36:12;7.97;;;6.93;;
29380;SDS011;16364;52.490;13.326;2023-08-21T03:38:37;7.70;;;7.10;;
29380;SDS011;16364;52.490;13.326;2023-08-21T03:41:02;7.63;;;6.93;;
29380;SDS011;16364;52.490;13.326;2023-08-21T03:43:28;9.13;;;8.33;;
29380;SDS011;16364;52.490;13.326;2023-08-21T03:45:53;8.33;;;7.53;;
29380;SDS011;16364;52.490;13.326;2023-08-21T03:48:18;8.17;;;7.47;;
29380;SDS011;16364;52.490;13.326;2023-08-21T03:50:43;7.77;;;7.17;;
29380;SDS011;16364;52.490;13.326;2023-08-21T03:53:08;7.90;;;7.20;;
29380;SDS011;16364;52.490;13.326;2023-08-21T03:55:34;7.43;;;6.93;;
29380;SDS011;16364;52.490;13.326;2023-08-21T03:57:59;12.87;;;10.90;;
29380;SDS011;16364;52.490;13.326;2023-08-21T04:00:25;17.13;;;15.43;;
29380;SDS011;16364;52.490;13.326;2023-08-21T04:02:50;18.73;;;16.90;;
29380;SDS011;16364;52.490;13.326;2023-08-21T04:05:15;18.10;;;16.30;;
29380;SDS011;16364;52.490;13.326;2023-08-21T04:07:41;15.70;;;14.00;;
29380;SDS011;16364;52.490;13.326;2023-08-21T04:10:06;12.60;;;11.37;;
29380;SDS011;16364;52.490;13.326;2023-08-21T04:12:31;12.67;;;11.53;;
29380;SDS011;16364;52.490;13.326;2023-08-21T04:14:57;11.30;;;10.30;;
29380;SDS011;16364;52.490;13.326;2023-08-21T04:17:22;10.03;;;9.00;;
29380;SDS011;16364;52.490;13.326;2023-08-21T04:19:48;8.73;;;7.90;;
29380;SDS011;16364;52.490;13.326;2023-08-21T04:22:13;9.37;;;8.30;;
29380;SDS011;16364;52.490;13.326;2023-08-21T04:24:39;8.20;;;7.43;;
29380;SDS011;16364;52.490;13.326;2023-08-21T04:27:04;12.23;;;8.27;;
29380;SDS011;16364;52.490;13.326;2023-08-21T04:29:30;9.80;;;8.40;;
29380;SDS011;16364;52.490;13.326;2023-08-21T04:31:55;9.93;;;8.80;;
29380;SDS011;16364;52.490;13.326;2023-08-21T04:34:20;9.10;;;8.30;;
29380;SDS011;16364;52.490;13.326;2023-08-21T04:36:45;9.50;;;8.70;;
29380;SDS011;16364;52.490;13.326;2023-08-21T04:39:11;9.30;;;8.50;;
29380;SDS011;16364;52.490;13.326;2023-08-21T04:41:36;9.23;;;8.33;;
29380;SDS011;16364;52.490;13.326;2023-08-21T04:44:01;11.47;;;10.30;;
29380;SDS011;16364;52.490;13.326;2023-08-21T04:46:28;9.33;;;8.60;;
29380;SDS011;16364;52.490;13.326;2023-08-21T04:48:53;9.77;;;8.97;;
29380;SDS011;16364;52.490;13.326;2023-08-21T04:51:18;11.30;;;10.30;;
29380;SDS011;16364;52.490;13.326;2023-08-21T04:53:45;12.17;;;10.40;;
29380;SDS011;16364;52.490;13.326;2023-08-21T04:56:10;12.23;;;11.03;;
29380;SDS011;16364;52.490;13.326;2023-08-21T04:58:35;9.87;;;9.03;;
29380;SDS011;16364;52.490;13.326;2023-08-21T05:01:01;9.90;;;9.07;;
29380;SDS011;16364;52.490;13.326;2023-08-21T05:03:26;9.33;;;8.43;;
29380;SDS011;16364;52.490;13.326;2023-08-21T05:05:52;10.40;;;8.83;;
29380;SDS011;16364;52.490;13.326;2023-08-21T05:08:17;10.63;;;9.50;;
29380;SDS011;16364;52.490;13.326;2023-08-21T05:10:42;11.93;;;9.50;;
29380;SDS011;16364;52.490;13.326;2023-08-21T05:13:07;10.10;;;9.20;;
29380;SDS011;16364;52.490;13.326;2023-08-21T05:15:33;8.67;;;7.97;;
29380;SDS011;16364;52.490;13.326;2023-08-21T05:17:58;8.93;;;8.00;;
29380;SDS011;16364;52.490;13.326;2023-08-21T05:20:23;7.70;;;7.00;;
29380;SDS011;16364;52.490;13.326;2023-08-21T05:22:48;9.07;;;8.17;;
29380;SDS011;16364;52.490;13.326;2023-08-21T05:25:14;10.20;;;9.20;;
29380;SDS011;16364;52.490;13.326;2023-08-21T05:27:40;8.40;;;7.50;;
29380;SDS011;16364;52.490;13.326;2023-08-21T05:30:05;8.90;;;8.20;;
29380;SDS011;16364;52.490;13.326;2023-08-21T05:32:30;8.70;;;8.00;;
29380;SDS011;16364;52.490;13.326;2023-08-21T05:34:56;9.23;;;8.43;;
29380;SDS011;16364;52.490;13.326;2023-08-21T05:37:21;8.80;;;8.00;;
29380;SDS011;16364;52.490;13.326;2023-08-21T05:39:46;7.83;;;7.23;;
29380;SDS011;16364;52.490;13.326;2023-08-21T05:42:11;10.63;;;9.53;;
29380;SDS011;16364;52.490;13.326;2023-08-21T05:44:37;9.80;;;8.90;;
29380;SDS011;16364;52.490;13.326;2023-08-21T05:47:02;8.77;;;7.97;;
29380;SDS011;16364;52.490;13.326;2023-08-21T05:49:27;9.27;;;8.10;;
29380;SDS011;16364;52.490;13.326;2023-08-21T05:51:52;8.77;;;7.90;;
29380;SDS011;16364;52.490;13.326;2023-08-21T05:54:18;9.67;;;8.80;;
29380;SDS011;16364;52.490;13.326;2023-08-21T05:56:44;10.60;;;9.57;;
29380;SDS011;16364;52.490;13.326;2023-08-21T05:59:10;8.27;;;7.57;;
29380;SDS011;16364;52.490;13.326;2023-08-21T06:01:35;9.80;;;9.00;;
29380;SDS011;16364;52.490;13.326;2023-08-21T06:04:00;8.10;;;7.50;;
29380;SDS011;16364;52.490;13.326;2023-08-21T06:06:25;9.07;;;8.40;;
29380;SDS011;16364;52.490;13.326;2023-08-21T06:08:51;9.27;;;8.57;;
29380;SDS011;16364;52.490;13.326;2023-08-21T06:11:16;8.00;;;7.13;;
29380;SDS011;16364;52.490;13.326;2023-08-21T06:13:41;11.87;;;8.03;;
29380;SDS011;16364;52.490;13.326;2023-08-21T06:16:06;8.27;;;7.57;;
29380;SDS011;16364;52.490;13.326;2023-08-21T06:18:32;8.43;;;7.73;;
29380;SDS011;16364;52.490;13.326;2023-08-21T06:20:57;8.47;;;7.60;;
29380;SDS011;16364;52.490;13.326;2023-08-21T06:23:22;9.03;;;8.23;;
29380;SDS011;16364;52.490;13.326;2023-08-21T06:25:48;9.00;;;8.20;;
29380;SDS011;16364;52.490;13.326;2023-08-21T06:28:13;9.40;;;8.60;;
29380;SDS011;16364;52.490;13.326;2023-08-21T06:30:38;9.77;;;8.93;;
29380;SDS011;16364;52.490;13.326;2023-08-21T06:33:04;10.00;;;9.10;;
29380;SDS011;16364;52.490;13.326;2023-08-21T06:35:29;10.40;;;9.40;;
29380;SDS011;16364;52.490;13.326;2023-08-21T06:37:54;10.13;;;9.30;;
29380;SDS011;16364;52.490;13.326;2023-08-21T06:40:19;9.93;;;9.17;;
29380;SDS011;16364;52.490;13.326;2023-08-21T06:42:44;10.13;;;9.00;;
29380;SDS011;16364;52.490;13.326;2023-08-21T06:45:10;10.40;;;9.37;;
29380;SDS011;16364;52.490;13.326;2023-08-21T06:47:35;14.00;;;10.30;;
29380;SDS011;16364;52.490;13.326;2023-08-21T06:50:00;10.33;;;9.33;;
29380;SDS011;16364;52.490;13.326;2023-08-21T06:52:26;9.93;;;8.83;;
29380;SDS011;16364;52.490;13.326;2023-08-21T06:54:51;10.20;;;9.30;;
29380;SDS011;16364;52.490;13.326;2023-08-21T06:57:16;9.30;;;7.93;;
29380;SDS011;16364;52.490;13.326;2023-08-21T06:59:42;7.47;;;6.87;;
29380;SDS011;16364;52.490;13.326;2023-08-21T07:02:07;7.87;;;7.07;;
29380;SDS011;16364;52.490;13.326;2023-08-21T07:04:32;9.00;;;8.10;;
29380;SDS011;16364;52.490;13.326;2023-08-21T07:07:00;7.47;;;6.87;;
29380;SDS011;16364;52.490;13.326;2023-08-21T07:09:25;8.20;;;7.40;;
29380;SDS011;16364;52.490;13.326;2023-08-21T07:11:51;9.17;;;7.60;;
29380;SDS011;16364;52.490;13.326;2023-08-21T07:14:16;5.90;;;5.50;;
29380;SDS011;16364;52.490;13.326;2023-08-21T07:16:42;6.13;;;5.63;;
29380;SDS011;16364;52.490;13.326;2023-08-21T07:19:07;6.00;;;5.40;;
29380;SDS011;16364;52.490;13.326;2023-08-21T07:21:32;5.90;;;5.40;;
29380;SDS011;16364;52.490;13.326;2023-08-21T07:24:00;5.53;;;5.13;;
29380;SDS011;16364;52.490;13.326;2023-08-21T07:26:25;5.90;;;5.27;;
29380;SDS011;16364;52.490;13.326;2023-08-21T07:28:51;6.33;;;5.77;;
29380;SDS011;16364;52.490;13.326;2023-08-21T07:31:18;8.27;;;5.87;;
29380;SDS011;16364;52.490;13.326;2023-08-21T07:33:43;6.97;;;5.30;;
29380;SDS011;16364;52.490;13.326;2023-08-21T07:36:08;6.43;;;4.83;;
29380;SDS011;16364;52.490;13.326;2023-08-21T07:38:33;5.97;;;4.83;;
29380;SDS011;16364;52.490;13.326;2023-08-21T07:41:05;5.70;;;4.57;;
29380;SDS011;16364;52.490;13.326;2023-08-21T07:43:32;4.73;;;4.33;;
29380;SDS011;16364;52.490;13.326;2023-08-21T07:45:57;6.77;;;5.57;;
29380;SDS011;16364;52.490;13.326;2023-08-21T07:48:22;6.10;;;4.93;;
29380;SDS011;16364;52.490;13.326;2023-08-21T07:50:51;4.00;;;3.67;;
29380;SDS011;16364;52.490;13.326;2023-08-21T07:53:17;3.90;;;3.50;;
29380;SDS011;16364;52.490;13.326;2023-08-21T07:55:42;3.83;;;3.53;;
29380;SDS011;16364;52.490;13.326;2023-08-21T07:58:08;5.87;;;3.50;;
29380;SDS011;16364;52.490;13.326;2023-08-21T08:00:33;5.53;;;3.63;;
29380;SDS011;16364;52.490;13.326;2023-08-21T08:02:58;3.67;;;3.37;;
29380;SDS011;16364;52.490;13.326;2023-08-21T08:05:23;3.87;;;3.57;;
29380;SDS011;16364;52.490;13.326;2023-08-21T08:07:49;4.17;;;3.63;;
29380;SDS011;16364;52.490;13.326;2023-08-21T08:10:14;2.97;;;2.60;;
29380;SDS011;16364;52.490;13.326;2023-08-21T08:12:41;3.10;;;2.90;;
29380;SDS011;16364;52.490;13.326;2023-08-21T08:15:06;2.70;;;2.30;;
29380;SDS011;16364;52.490;13.326;2023-08-21T08:17:31;5.73;;;2.93;;
29380;SDS011;16364;52.490;13.326;2023-08-21T08:19:57;4.83;;;2.80;;
29380;SDS011;16364;52.490;13.326;2023-08-21T08:22:22;6.40;;;2.70;;
29380;SDS011;16364;52.490;13.326;2023-08-21T08:24:47;3.80;;;2.97;;
29380;SDS011;16364;52.490;13.326;2023-08-21T08:27:12;3.77;;;2.83;;
29380;SDS011;16364;52.490;13.326;2023-08-21T08:29:38;3.13;;;2.10;;
29380;SDS011;16364;52.490;13.326;2023-08-21T08:32:03;3.70;;;2.43;;
29380;SDS011;16364;52.490;13.326;2023-08-21T08:34:28;3.00;;;2.67;;
29380;SDS011;16364;52.490;13.326;2023-08-21T08:36:53;3.50;;;2.63;;
29380;SDS011;16364;52.490;13.326;2023-08-21T08:39:19;2.73;;;2.53;;
29380;SDS011;16364;52.490;13.326;2023-08-21T08:41:48;2.90;;;2.67;;
29380;SDS011;16364;52.490;13.326;2023-08-21T08:44:15;2.80;;;2.57;;
29380;SDS011;16364;52.490;13.326;2023-08-21T08:46:41;4.93;;;2.70;;
29380;SDS011;16364;52.490;13.326;2023-08-21T08:49:06;3.10;;;1.97;;
29380;SDS011;16364;52.490;13.326;2023-08-21T08:51:32;3.20;;;2.57;;
29380;SDS011;16364;52.490;13.326;2023-08-21T08:53:58;2.00;;;1.67;;
29380;SDS011;16364;52.490;13.326;2023-08-21T08:56:24;2.57;;;1.70;;
29380;SDS011;16364;52.490;13.326;2023-08-21T08:58:49;1.80;;;1.30;;
29380;SDS011;16364;52.490;13.326;2023-08-21T09:01:14;2.70;;;1.60;;
29380;SDS011;16364;52.490;13.326;2023-08-21T09:03:40;1.73;;;1.57;;
29380;SDS011;16364;52.490;13.326;2023-08-21T09:06:05;1.60;;;1.20;;
29380;SDS011;16364;52.490;13.326;2023-08-21T09:08:30;1.50;;;1.10;;
29380;SDS011;16364;52.490;13.326;2023-08-21T09:10:55;1.10;;;0.97;;
29380;SDS011;16364;52.490;13.326;2023-08-21T09:13:25;1.20;;;1.00;;
29380;SDS011;16364;52.490;13.326;2023-08-21T09:15:54;1.83;;;1.10;;
29380;SDS011;16364;52.490;13.326;2023-08-21T09:18:20;1.30;;;1.07;;
29380;SDS011;16364;52.490;13.326;2023-08-21T09:20:45;2.27;;;1.20;;
29380;SDS011;16364;52.490;13.326;2023-08-21T09:23:14;1.50;;;1.00;;
29380;SDS011;16364;52.490;13.326;2023-08-21T09:25:40;4.43;;;1.47;;
29380;SDS011;16364;52.490;13.326;2023-08-21T09:28:08;1.87;;;1.10;;
29380;SDS011;16364;52.490;13.326;2023-08-21T09:30:43;1.20;;;0.90;;
29380;SDS011;16364;52.490;13.326;2023-08-21T09:33:09;2.60;;;1.00;;
29380;SDS011;16364;52.490;13.326;2023-08-21T09:35:34;1.93;;;1.20;;
29380;SDS011;16364;52.490;13.326;2023-08-21T09:38:00;1.50;;;1.10;;
29380;SDS011;16364;52.490;13.326;2023-08-21T09:40:25;2.60;;;1.00;;
29380;SDS011;16364;52.490;13.326;2023-08-21T09:42:54;1.40;;;1.10;;
29380;SDS011;16364;52.490;13.326;2023-08-21T09:45:23;1.10;;;1.00;;
29380;SDS011;16364;52.490;13.326;2023-08-21T09:47:48;1.37;;;1.10;;
29380;SDS011;16364;52.490;13.326;2023-08-21T09:50:14;4.47;;;1.23;;
29380;SDS011;16364;52.490;13.326;2023-08-21T09:52:40;2.43;;;1.37;;
29380;SDS011;16364;52.490;13.326;2023-08-21T09:55:05;2.70;;;1.20;;
29380;SDS011;16364;52.490;13.326;2023-08-21T09:57:30;1.90;;;1.30;;
29380;SDS011;16364;52.490;13.326;2023-08-21T09:59:56;2.27;;;1.43;;
29380;SDS011;16364;52.490;13.326;2023-08-21T10:02:22;1.60;;;1.40;;
29380;SDS011;16364;52.490;13.326;2023-08-21T10:04:48;1.60;;;1.20;;
29380;SDS011;16364;52.490;13.326;2023-08-21T10:07:13;2.13;;;1.93;;
29380;SDS011;16364;52.490;13.326;2023-08-21T10:09:41;1.57;;;1.37;;
29380;SDS011;16364;52.490;13.326;2023-08-21T10:12:08;2.07;;;1.40;;
29380;SDS011;16364;52.490;13.326;2023-08-21T10:14:34;1.57;;;1.13;;
29380;SDS011;16364;52.490;13.326;2023-08-21T10:17:00;3.33;;;1.20;;
29380;SDS011;16364;52.490;13.326;2023-08-21T10:19:30;3.00;;;1.40;;
29380;SDS011;16364;52.490;13.326;2023-08-21T10:21:55;1.83;;;1.20;;
29380;SDS011;16364;52.490;13.326;2023-08-21T10:24:27;2.70;;;1.60;;
29380;SDS011;16364;52.490;13.326;2023-08-21T10:26:59;2.50;;;1.10;;
29380;SDS011;16364;52.490;13.326;2023-08-21T10:29:24;4.57;;;1.23;;
29380;SDS011;16364;52.490;13.326;2023-08-21T10:31:58;2.03;;;1.30;;
29380;SDS011;16364;52.490;13.326;2023-08-21T10:34:25;3.63;;;1.30;;
29380;SDS011;16364;52.490;13.326;2023-08-21T10:37:08;1.33;;;1.23;;
29380;SDS011;16364;52.490;13.326;2023-08-21T10:39:37;1.73;;;1.30;;
29380;SDS011;16364;52.490;13.326;2023-08-21T10:49:46;2.13;;;0.90;;
29380;SDS011;16364;52.490;13.326;2023-08-21T10:52:11;1.27;;;1.10;;
29380;SDS011;16364;52.490;13.326;2023-08-21T10:54:53;2.23;;;1.20;;
29380;SDS011;16364;52.490;13.326;2023-08-21T10:57:19;2.07;;;1.00;;
29380;SDS011;16364;52.490;13.326;2023-08-21T11:02:22;4.03;;;1.23;;
29380;SDS011;16364;52.490;13.326;2023-08-21T11:04:48;1.30;;;0.90;;
29380;SDS011;16364;52.490;13.326;2023-08-21T11:07:13;2.17;;;1.17;;
29380;SDS011;16364;52.490;13.326;2023-08-21T11:09:39;2.17;;;1.20;;
29380;SDS011;16364;52.490;13.326;2023-08-21T11:12:08;2.03;;;1.10;;
29380;SDS011;16364;52.490;13.326;2023-08-21T11:14:33;1.50;;;1.20;;
29380;SDS011;16364;52.490;13.326;2023-08-21T11:17:00;8.83;;;1.53;;
29380;SDS011;16364;52.490;13.326;2023-08-21T11:19:25;2.07;;;1.50;;
29380;SDS011;16364;52.490;13.326;2023-08-21T11:21:51;2.50;;;1.30;;
29380;SDS011;16364;52.490;13.326;2023-08-21T11:24:16;1.37;;;1.00;;
29380;SDS011;16364;52.490;13.326;2023-08-21T11:26:41;1.87;;;1.00;;
29380;SDS011;16364;52.490;13.326;2023-08-21T11:29:06;3.77;;;1.30;;
29380;SDS011;16364;52.490;13.326;2023-08-21T11:31:32;1.53;;;1.40;;
29380;SDS011;16364;52.490;13.326;2023-08-21T11:33:57;4.67;;;1.20;;
29380;SDS011;16364;52.490;13.326;2023-08-21T11:36:22;1.63;;;1.00;;
29380;SDS011;16364;52.490;13.326;2023-08-21T11:39:00;1.40;;;1.03;;
29380;SDS011;16364;52.490;13.326;2023-08-21T11:41:25;3.90;;;1.10;;
29380;SDS011;16364;52.490;13.326;2023-08-21T11:43:51;1.57;;;1.23;;
29380;SDS011;16364;52.490;13.326;2023-08-21T11:46:17;3.20;;;1.07;;
29380;SDS011;16364;52.490;13.326;2023-08-21T11:48:43;3.13;;;1.33;;
29380;SDS011;16364;52.490;13.326;2023-08-21T11:51:08;3.20;;;1.17;;
29380;SDS011;16364;52.490;13.326;2023-08-21T11:55:59;2.10;;;1.30;;
29380;SDS011;16364;52.490;13.326;2023-08-21T11:58:26;1.37;;;0.97;;
29380;SDS011;16364;52.490;13.326;2023-08-21T12:00:51;2.00;;;0.90;;
29380;SDS011;16364;52.490;13.326;2023-08-21T12:03:17;2.70;;;1.00;;
29380;SDS011;16364;52.490;13.326;2023-08-21T12:05:43;2.47;;;1.10;;
29380;SDS011;16364;52.490;13.326;2023-08-21T12:08:09;1.77;;;1.10;;
29380;SDS011;16364;52.490;13.326;2023-08-21T12:10:34;1.67;;;1.00;;
29380;SDS011;16364;52.490;13.326;2023-08-21T12:12:59;1.40;;;1.10;;
29380;SDS011;16364;52.490;13.326;2023-08-21T12:15:25;2.70;;;1.10;;
29380;SDS011;16364;52.490;13.326;2023-08-21T12:17:50;2.20;;;1.00;;
29380;SDS011;16364;52.490;13.326;2023-08-21T12:20:15;2.30;;;1.40;;
29380;SDS011;16364;52.490;13.326;2023-08-21T12:22:40;1.90;;;1.20;;
29380;SDS011;16364;52.490;13.326;2023-08-21T12:25:08;2.03;;;1.13;;
29380;SDS011;16364;52.490;13.326;2023-08-21T12:27:35;1.43;;;1.10;;
29380;SDS011;16364;52.490;13.326;2023-08-21T12:30:00;2.03;;;1.07;;
29380;SDS011;16364;52.490;13.326;2023-08-21T12:32:25;1.20;;;1.10;;
29380;SDS011;16364;52.490;13.326;2023-08-21T12:34:50;1.90;;;1.10;;
29380;SDS011;16364;52.490;13.326;2023-08-21T12:37:17;4.33;;;1.30;;
29380;SDS011;16364;52.490;13.326;2023-08-21T12:39:42;1.60;;;1.33;;
29380;SDS011;16364;52.490;13.326;2023-08-21T12:42:07;1.73;;;1.00;;
29380;SDS011;16364;52.490;13.326;2023-08-21T12:44:35;1.60;;;1.30;;
29380;SDS011;16364;52.490;13.326;2023-08-21T12:47:00;1.10;;;1.00;;
29380;SDS011;16364;52.490;13.326;2023-08-21T12:49:26;1.37;;;1.00;;
29380;SDS011;16364;52.490;13.326;2023-08-21T12:51:51;1.33;;;1.10;;
29380;SDS011;16364;52.490;13.326;2023-08-21T12:54:16;1.20;;;1.00;;
29380;SDS011;16364;52.490;13.326;2023-08-21T12:56:41;1.57;;;1.17;;
29380;SDS011;16364;52.490;13.326;2023-08-21T12:59:07;1.70;;;0.87;;
29380;SDS011;16364;52.490;13.326;2023-08-21T13:01:32;2.30;;;1.40;;
29380;SDS011;16364;52.490;13.326;2023-08-21T13:03:59;3.60;;;1.60;;
29380;SDS011;16364;52.490;13.326;2023-08-21T13:06:24;1.57;;;0.87;;
29380;SDS011;16364;52.490;13.326;2023-08-21T13:08:49;1.57;;;0.97;;
29380;SDS011;16364;52.490;13.326;2023-08-21T13:11:15;1.63;;;1.00;;
29380;SDS011;16364;52.490;13.326;2023-08-21T13:13:40;1.10;;;0.90;;
29380;SDS011;16364;52.490;13.326;2023-08-21T13:16:05;2.07;;;1.10;;
29380;SDS011;16364;52.490;13.326;2023-08-21T13:18:31;1.47;;;0.83;;
29380;SDS011;16364;52.490;13.326;2023-08-21T13:20:56;2.27;;;1.10;;
29380;SDS011;16364;52.490;13.326;2023-08-21T13:23:21;1.00;;;0.90;;
29380;SDS011;16364;52.490;13.326;2023-08-21T13:25:47;1.63;;;0.90;;
29380;SDS011;16364;52.490;13.326;2023-08-21T13:28:12;1.60;;;1.10;;
29380;SDS011;16364;52.490;13.326;2023-08-21T13:30:38;2.13;;;1.00;;
29380;SDS011;16364;52.490;13.326;2023-08-21T13:33:03;1.10;;;0.80;;
29380;SDS011;16364;52.490;13.326;2023-08-21T13:35:29;1.10;;;1.00;;
29380;SDS011;16364;52.490;13.326;2023-08-21T13:37:54;3.13;;;1.27;;
29380;SDS011;16364;52.490;13.326;2023-08-21T13:40:20;2.10;;;0.90;;
29380;SDS011;16364;52.490;13.326;2023-08-21T13:42:46;1.20;;;0.80;;
29380;SDS011;16364;52.490;13.326;2023-08-21T13:45:13;1.30;;;0.90;;
29380;SDS011;16364;52.490;13.326;2023-08-21T13:47:39;1.83;;;0.90;;
29380;SDS011;16364;52.490;13.326;2023-08-21T13:50:04;2.30;;;0.83;;
29380;SDS011;16364;52.490;13.326;2023-08-21T13:52:30;3.13;;;1.03;;
29380;SDS011;16364;52.490;13.326;2023-08-21T13:54:55;3.00;;;0.93;;
29380;SDS011;16364;52.490;13.326;2023-08-21T13:57:20;1.00;;;0.90;;
29380;SDS011;16364;52.490;13.326;2023-08-21T13:59:46;0.90;;;0.80;;
29380;SDS011;16364;52.490;13.326;2023-08-21T14:02:11;1.93;;;0.80;;
29380;SDS011;16364;52.490;13.326;2023-08-21T14:04:36;1.73;;;0.90;;
29380;SDS011;16364;52.490;13.326;2023-08-21T14:07:02;2.10;;;0.73;;
29380;SDS011;16364;52.490;13.326;2023-08-21T14:09:27;1.53;;;0.80;;
29380;SDS011;16364;52.490;13.326;2023-08-21T14:11:52;1.70;;;0.90;;
29380;SDS011;16364;52.490;13.326;2023-08-21T14:14:17;0.90;;;0.80;;
29380;SDS011;16364;52.490;13.326;2023-08-21T14:16:43;1.33;;;0.80;;
29380;SDS011;16364;52.490;13.326;2023-08-21T14:19:08;3.13;;;0.83;;
29380;SDS011;16364;52.490;13.326;2023-08-21T14:21:33;1.43;;;1.10;;
29380;SDS011;16364;52.490;13.326;2023-08-21T14:23:58;3.17;;;1.00;;
29380;SDS011;16364;52.490;13.326;2023-08-21T14:26:24;0.83;;;0.80;;
29380;SDS011;16364;52.490;13.326;2023-08-21T14:28:49;1.93;;;1.00;;
29380;SDS011;16364;52.490;13.326;2023-08-21T14:31:16;0.90;;;0.80;;
29380;SDS011;16364;52.490;13.326;2023-08-21T14:33:41;2.83;;;0.80;;
29380;SDS011;16364;52.490;13.326;2023-08-21T14:36:06;3.73;;;0.90;;
29380;SDS011;16364;52.490;13.326;2023-08-21T14:38:32;1.97;;;1.40;;
29380;SDS011;16364;52.490;13.326;2023-08-21T14:40:57;3.10;;;1.00;;